createdAt,value
2018-09-15T00:01:36.927Z,17.00
2018-09-15T00:04:07.262Z,16.90
2018-09-15T00:06:37.323Z,17.00
2018-09-15T00:09:09.800Z,17.00
2018-09-15T00:11:39.825Z,17.10
2018-09-15T00:14:09.867Z,17.10
2018-09-15T00:16:39.845Z,17.10
2018-09-15T00:19:09.955Z,17.20
2018-09-15T00:21:40.343Z,17.20
2018-09-15T00:24:10.664Z,17.30
2018-09-15T00:26:41.841Z,17.30
2018-09-15T00:29:12.518Z,17.30
2018-09-15T00:31:43.549Z,17.30
2018-09-15T00:34:14.424Z,17.30
2018-09-15T00:36:45.499Z,17.30
2018-09-15T00:39:17.883Z,17.30
2018-09-15T00:41:49.056Z,17.20
2018-09-15T00:44:20.216Z,17.30
2018-09-15T00:46:51.288Z,17.20
2018-09-15T00:49:23.111Z,17.20
2018-09-15T00:51:53.830Z,17.20
2018-09-15T00:54:24.548Z,17.20
2018-09-15T00:56:55.796Z,17.10
2018-09-15T00:59:26.791Z,17.10
2018-09-15T01:01:57.586Z,16.90
2018-09-15T01:04:27.989Z,16.80
2018-09-15T01:06:59.596Z,16.80
2018-09-15T01:09:30.790Z,16.80
2018-09-15T01:12:01.328Z,16.90
2018-09-15T01:14:31.482Z,16.90
2018-09-15T01:17:01.878Z,16.90
2018-09-15T01:19:32.674Z,16.90
2018-09-15T01:22:03.870Z,16.70
2018-09-15T01:24:34.928Z,16.70
2018-09-15T01:27:05.946Z,16.70
2018-09-15T01:29:37.469Z,16.80
2018-09-15T01:32:08.667Z,16.80
2018-09-15T01:34:39.391Z,16.70
2018-09-15T01:37:10.628Z,16.80
2018-09-15T01:39:42.949Z,16.80
2018-09-15T01:42:13.740Z,16.80
2018-09-15T01:44:44.389Z,16.70
2018-09-15T01:47:15.262Z,16.60
2018-09-15T01:49:46.884Z,16.60
2018-09-15T01:52:17.791Z,16.50
2018-09-15T01:54:48.190Z,16.50
2018-09-15T01:57:19.092Z,16.60
2018-09-15T01:59:49.460Z,16.70
2018-09-15T02:02:19.825Z,16.70
2018-09-15T02:04:50.795Z,16.70
2018-09-15T02:07:21.699Z,16.70
2018-09-15T02:09:53.232Z,16.60
2018-09-15T02:12:25.093Z,16.50
2018-09-15T02:14:56.081Z,16.50
2018-09-15T02:17:27.414Z,16.50
2018-09-15T02:19:58.349Z,16.50
2018-09-15T02:22:29.395Z,16.30
2018-09-15T02:25:01.134Z,16.20
2018-09-15T02:27:32.787Z,16.10
2018-09-15T02:30:03.928Z,16.10
2018-09-15T02:32:34.994Z,16.00
2018-09-15T02:35:06.222Z,16.00
2018-09-15T02:37:36.971Z,16.10
2018-09-15T02:40:08.149Z,16.10
2018-09-15T02:42:38.835Z,16.20
2018-09-15T02:45:09.841Z,16.10
2018-09-15T02:47:40.791Z,16.10
2018-09-15T02:50:11.351Z,16.10
2018-09-15T02:52:41.750Z,16.10
2018-09-15T02:55:12.609Z,16.20
2018-09-15T02:57:42.737Z,16.20
2018-09-15T03:00:12.989Z,16.20
2018-09-15T03:02:43.800Z,16.20
2018-09-15T03:05:14.709Z,16.30
2018-09-15T03:07:45.038Z,16.30
2018-09-15T03:10:15.769Z,16.20
2018-09-15T03:12:46.268Z,16.00
2018-09-15T03:15:17.223Z,15.80
2018-09-15T03:17:47.711Z,15.80
2018-09-15T03:20:18.545Z,15.90
2018-09-15T03:22:49.469Z,15.90
2018-09-15T03:25:20.326Z,15.90
2018-09-15T03:27:51.828Z,15.90
2018-09-15T03:30:22.381Z,15.80
2018-09-15T03:32:52.554Z,15.60
2018-09-15T03:35:23.863Z,15.40
2018-09-15T03:37:54.246Z,15.40
2018-09-15T03:40:24.995Z,15.50
2018-09-15T03:42:56.289Z,15.50
2018-09-15T03:45:27.974Z,15.50
2018-09-15T03:47:58.794Z,15.60
2018-09-15T03:50:29.198Z,15.70
2018-09-15T03:53:00.695Z,15.70
2018-09-15T03:55:31.624Z,15.80
2018-09-15T03:58:02.921Z,15.90
2018-09-15T04:00:33.790Z,16.00
2018-09-15T04:03:04.706Z,16.10
2018-09-15T04:05:34.948Z,16.10
2018-09-15T04:08:05.852Z,16.10
2018-09-15T04:10:36.489Z,16.10
2018-09-15T04:13:07.856Z,16.00
2018-09-15T04:15:38.149Z,16.10
2018-09-15T04:18:08.624Z,16.10
2018-09-15T04:20:39.015Z,16.20
2018-09-15T04:23:09.240Z,16.20
2018-09-15T04:25:39.910Z,16.20
2018-09-15T04:28:10.599Z,16.20
2018-09-15T04:30:42.153Z,16.30
2018-09-15T04:33:13.209Z,16.30
2018-09-15T04:35:44.406Z,16.30
2018-09-15T04:38:15.062Z,16.30
2018-09-15T04:40:46.375Z,16.30
2018-09-15T04:43:17.781Z,16.30
2018-09-15T04:45:48.522Z,16.30
2018-09-15T04:48:20.359Z,16.30
2018-09-15T04:50:51.542Z,16.30
2018-09-15T04:53:22.921Z,16.30
2018-09-15T04:55:53.909Z,16.30
2018-09-15T04:58:25.363Z,16.30
2018-09-15T05:00:56.109Z,16.30
2018-09-15T05:03:27.189Z,16.30
2018-09-15T05:05:57.912Z,16.20
2018-09-15T05:08:27.966Z,16.00
2018-09-15T05:10:58.854Z,16.00
2018-09-15T05:13:30.881Z,16.00
2018-09-15T05:16:01.841Z,16.00
2018-09-15T05:18:32.792Z,16.10
2018-09-15T05:21:03.905Z,16.10
2018-09-15T05:23:34.626Z,16.20
2018-09-15T05:26:05.879Z,16.30
2018-09-15T05:28:36.626Z,16.40
2018-09-15T05:31:07.257Z,16.40
2018-09-15T05:33:38.651Z,16.50
2018-09-15T05:36:10.434Z,16.70
2018-09-15T05:38:41.678Z,16.80
2018-09-15T05:41:12.751Z,16.70
2018-09-15T05:43:43.718Z,16.80
2018-09-15T05:46:14.195Z,16.90
2018-09-15T05:48:45.586Z,16.90
2018-09-15T05:51:15.909Z,17.10
2018-09-15T05:53:48.000Z,17.20
2018-09-15T05:56:18.085Z,17.10
2018-09-15T05:58:48.471Z,17.20
2018-09-15T06:01:19.229Z,17.20
2018-09-15T06:03:49.995Z,17.20
2018-09-15T06:06:20.699Z,17.30
2018-09-15T06:08:51.840Z,17.20
2018-09-15T06:11:22.555Z,17.40
2018-09-15T06:13:52.983Z,17.60
2018-09-15T06:16:24.323Z,17.80
2018-09-15T06:18:55.161Z,17.90
2018-09-15T06:21:25.786Z,18.00
2018-09-15T06:23:57.135Z,18.10
2018-09-15T06:26:28.496Z,18.20
2018-09-15T06:28:59.959Z,18.40
2018-09-15T06:31:31.637Z,18.40
2018-09-15T06:34:01.849Z,18.60
2018-09-15T06:36:31.858Z,18.80
2018-09-15T06:39:01.855Z,18.90
2018-09-15T06:41:31.871Z,18.70
2018-09-15T06:44:02.183Z,18.60
2018-09-15T06:46:32.543Z,18.60
2018-09-15T06:49:02.804Z,18.50
2018-09-15T06:51:32.718Z,18.40
2018-09-15T06:54:02.710Z,18.40
2018-09-15T06:56:33.206Z,18.60
2018-09-15T06:59:03.444Z,18.90
2018-09-15T07:01:33.590Z,19.20
2018-09-15T07:04:03.551Z,19.40
2018-09-15T07:06:57.975Z,19.20
2018-09-15T07:09:28.828Z,19.20
2018-09-15T07:11:59.102Z,19.40
2018-09-15T07:14:28.943Z,20.10
2018-09-15T07:16:59.148Z,21.00
2018-09-15T07:19:29.482Z,21.70
2018-09-15T07:21:59.587Z,22.50
2018-09-15T07:24:29.737Z,23.20
2018-09-15T07:26:59.857Z,23.40
2018-09-15T07:29:29.974Z,23.60
2018-09-15T07:32:00.225Z,23.80
2018-09-15T07:34:30.325Z,23.90
2018-09-15T07:37:00.803Z,23.60
2018-09-15T07:39:32.027Z,23.00
2018-09-15T07:42:02.551Z,22.30
2018-09-15T07:44:34.521Z,21.20
2018-09-15T07:47:05.553Z,20.40
2018-09-15T07:49:35.943Z,20.20
2018-09-15T07:52:21.415Z,20.20
2018-09-15T07:54:52.404Z,20.30
2018-09-15T07:57:22.821Z,20.30
2018-09-15T07:59:53.223Z,20.30
2018-09-15T08:02:24.483Z,20.60
2018-09-15T08:04:54.823Z,20.80
2018-09-15T08:07:24.795Z,20.80
2018-09-15T08:09:54.793Z,21.20
2018-09-15T08:12:24.744Z,21.50
2018-09-15T08:14:55.390Z,21.90
2018-09-15T08:17:26.227Z,22.80
2018-09-15T08:19:56.669Z,23.70
2018-09-15T08:22:27.623Z,25.20
2018-09-15T08:24:58.599Z,26.20
2018-09-15T08:27:29.562Z,27.30
2018-09-15T08:30:00.184Z,27.50
2018-09-15T08:32:31.505Z,27.50
2018-09-15T08:35:02.726Z,28.30
2018-09-15T08:37:33.918Z,29.70
2018-09-15T08:40:05.776Z,29.70
2018-09-15T08:42:37.216Z,29.50
2018-09-15T08:45:08.636Z,29.40
2018-09-15T08:47:40.068Z,29.70
2018-09-15T08:50:11.226Z,30.00
2018-09-15T08:52:41.917Z,30.60
2018-09-15T08:55:12.638Z,30.70
2018-09-15T08:57:44.770Z,30.70
2018-09-15T09:00:15.353Z,31.40
2018-09-15T09:02:46.152Z,31.20
2018-09-15T09:05:16.539Z,32.20
2018-09-15T09:07:48.356Z,32.70
2018-09-15T09:10:18.922Z,33.00
2018-09-15T09:12:49.790Z,33.30
2018-09-15T09:15:21.057Z,33.00
2018-09-15T09:17:52.630Z,31.90
2018-09-15T09:20:24.443Z,31.30
2018-09-15T09:22:56.319Z,31.30
2018-09-15T09:25:27.319Z,31.50
2018-09-15T09:27:57.734Z,31.10
2018-09-15T09:30:28.358Z,30.30
2018-09-15T09:32:58.659Z,30.20
2018-09-15T09:35:28.770Z,29.40
2018-09-15T09:37:59.205Z,29.60
2018-09-15T09:40:30.060Z,30.50
2018-09-15T09:43:00.817Z,31.40
2018-09-15T09:45:31.180Z,32.70
2018-09-15T09:48:01.708Z,32.80
2018-09-15T09:50:32.090Z,34.00
2018-09-15T09:53:02.601Z,34.20
2018-09-15T09:55:32.933Z,34.70
2018-09-15T09:58:03.481Z,35.70
2018-09-15T10:00:40.118Z,36.00
2018-09-15T10:03:10.716Z,36.30
2018-09-15T10:05:41.411Z,37.30
2018-09-15T10:08:11.770Z,37.70
2018-09-15T10:10:42.471Z,37.30
2018-09-15T10:13:13.994Z,36.10
2018-09-15T10:15:45.812Z,32.80
2018-09-15T10:18:17.150Z,31.00
2018-09-15T10:20:47.747Z,31.70
2018-09-15T10:23:19.603Z,31.90
2018-09-15T10:25:51.154Z,31.90
2018-09-15T10:28:21.051Z,32.60
2018-09-15T10:30:50.983Z,33.40
2018-09-15T10:33:21.174Z,34.00
2018-09-15T10:35:52.047Z,34.60
2018-09-15T10:38:23.132Z,35.00
2018-09-15T10:40:53.677Z,34.80
2018-09-15T10:43:24.070Z,34.90
2018-09-15T10:45:54.400Z,35.10
2018-09-15T10:48:24.537Z,35.80
2018-09-15T10:50:54.715Z,35.80
2018-09-15T10:53:25.211Z,35.90
2018-09-15T10:55:56.622Z,34.60
2018-09-15T10:58:27.991Z,32.90
2018-09-15T11:01:00.212Z,31.50
2018-09-15T11:03:31.650Z,30.90
2018-09-15T11:06:02.066Z,31.30
2018-09-15T11:08:32.294Z,30.70
2018-09-15T11:11:02.928Z,31.00
2018-09-15T11:13:33.344Z,31.90
2018-09-15T11:16:04.072Z,32.50
2018-09-15T11:18:35.055Z,32.30
2018-09-15T11:21:06.566Z,31.80
2018-09-15T11:23:37.984Z,30.40
2018-09-15T11:26:09.442Z,29.20
2018-09-15T11:28:39.685Z,28.10
2018-09-15T11:31:09.943Z,27.10
2018-09-15T11:33:40.061Z,27.30
2018-09-15T11:36:10.189Z,27.80
2018-09-15T11:38:40.559Z,29.00
2018-09-15T11:41:11.112Z,29.90
2018-09-15T11:43:42.120Z,29.70
2018-09-15T11:46:12.719Z,29.20
2018-09-15T11:48:43.325Z,29.50
2018-09-15T11:51:13.712Z,29.70
2018-09-15T11:53:44.022Z,29.20
2018-09-15T11:56:13.795Z,28.60
2018-09-15T11:58:43.595Z,28.40
2018-09-15T12:01:13.804Z,28.20
2018-09-15T12:03:45.092Z,28.70
2018-09-15T12:06:15.111Z,29.60
2018-09-15T12:08:45.028Z,29.50
2018-09-15T12:11:14.956Z,28.50
2018-09-15T12:13:45.153Z,28.20
2018-09-15T12:16:15.120Z,29.50
2018-09-15T12:18:45.160Z,30.70
2018-09-15T12:21:15.214Z,32.50
2018-09-15T12:23:45.050Z,33.80
2018-09-15T12:26:15.011Z,33.30
2018-09-15T12:28:45.034Z,33.30
2018-09-15T12:31:15.460Z,32.50
2018-09-15T12:33:45.785Z,31.80
2018-09-15T12:36:16.198Z,30.70
2018-09-15T12:38:47.263Z,29.50
2018-09-15T12:41:18.373Z,28.50
2018-09-15T12:43:49.631Z,28.00
2018-09-15T12:46:20.835Z,27.40
2018-09-15T12:48:51.377Z,27.40
2018-09-15T12:51:21.479Z,27.70
2018-09-15T12:53:51.604Z,27.80
2018-09-15T12:56:21.887Z,27.70
2018-09-15T12:58:51.697Z,27.40
2018-09-15T13:01:21.879Z,27.50
2018-09-15T13:03:53.150Z,27.50
2018-09-15T13:06:23.273Z,27.70
2018-09-15T13:08:53.527Z,27.10
2018-09-15T13:11:23.348Z,26.60
2018-09-15T13:13:53.520Z,27.70
2018-09-15T13:16:23.460Z,29.00
2018-09-15T13:18:53.465Z,29.70
2018-09-15T13:21:24.302Z,30.50
2018-09-15T13:23:54.764Z,30.40
2018-09-15T13:26:25.625Z,30.10
2018-09-15T13:28:57.060Z,30.90
2018-09-15T13:31:27.341Z,30.90
2018-09-15T13:33:57.860Z,29.60
2018-09-15T13:36:28.867Z,28.90
2018-09-15T13:39:00.584Z,28.10
2018-09-15T13:41:31.987Z,28.20
2018-09-15T13:44:02.200Z,29.20
2018-09-15T13:46:33.728Z,30.40
2018-09-15T13:49:04.383Z,30.70
2018-09-15T13:51:34.865Z,31.00
2018-09-15T13:54:05.207Z,31.60
2018-09-15T13:56:35.798Z,31.50
2018-09-15T13:59:06.483Z,32.00
2018-09-15T14:01:36.417Z,31.30
2018-09-15T14:04:06.726Z,31.80
2018-09-15T14:06:37.766Z,31.80
2018-09-15T14:09:10.834Z,30.90
2018-09-15T14:11:42.122Z,30.50
2018-09-15T14:14:12.950Z,30.70
2018-09-15T14:16:43.145Z,30.70
2018-09-15T14:19:13.815Z,31.20
2018-09-15T14:21:44.850Z,31.30
2018-09-15T14:24:15.360Z,31.30
2018-09-15T14:26:48.118Z,32.00
2018-09-15T14:29:19.155Z,32.80
2018-09-15T14:31:50.548Z,32.40
2018-09-15T14:34:21.105Z,31.40
2018-09-15T14:36:51.901Z,31.00
2018-09-15T14:39:22.923Z,30.30
2018-09-15T14:41:56.263Z,30.00
2018-09-15T14:44:26.226Z,29.90
2018-09-15T14:46:56.434Z,30.20
2018-09-15T14:49:27.540Z,29.30
2018-09-15T14:51:58.049Z,29.70
2018-09-15T14:54:29.308Z,29.30
2018-09-15T14:56:59.541Z,29.80
2018-09-15T14:59:29.690Z,30.40
2018-09-15T15:01:59.537Z,30.60
2018-09-15T15:04:30.650Z,30.50
2018-09-15T15:07:02.280Z,29.30
2018-09-15T15:09:33.125Z,28.60
2018-09-15T15:12:04.076Z,28.20
2018-09-15T15:14:33.993Z,28.40
2018-09-15T15:17:04.658Z,28.60
2018-09-15T15:19:34.692Z,28.30
2018-09-15T15:22:06.130Z,28.30
2018-09-15T15:24:36.400Z,27.60
2018-09-15T15:27:06.723Z,27.30
2018-09-15T15:29:37.018Z,27.40
2018-09-15T15:32:07.331Z,27.80
2018-09-15T15:34:37.601Z,27.70
2018-09-15T15:37:08.261Z,27.70
2018-09-15T15:39:38.742Z,27.60
2018-09-15T15:42:09.502Z,28.00
2018-09-15T15:44:39.639Z,27.50
2018-09-15T15:47:09.891Z,27.40
2018-09-15T15:49:40.489Z,26.60
2018-09-15T15:52:10.717Z,26.30
2018-09-15T15:54:41.033Z,26.00
2018-09-15T15:57:12.650Z,25.80
2018-09-15T15:59:43.613Z,26.20
2018-09-15T16:02:13.993Z,26.50
2018-09-15T16:04:44.631Z,26.90
2018-09-15T16:07:15.190Z,26.80
2018-09-15T16:09:45.489Z,25.90
2018-09-15T16:12:15.382Z,25.80
2018-09-15T16:14:45.749Z,25.70
2018-09-15T16:17:16.818Z,24.80
2018-09-15T16:19:47.236Z,24.40
2018-09-15T16:22:17.315Z,24.10
2018-09-15T16:24:47.540Z,23.30
2018-09-15T16:27:18.132Z,23.00
2018-09-15T16:29:48.410Z,22.60
2018-09-15T16:32:18.872Z,22.40
2018-09-15T16:34:49.548Z,22.10
2018-09-15T16:37:19.482Z,21.80
2018-09-15T16:39:50.559Z,21.70
2018-09-15T16:42:21.970Z,21.50
2018-09-15T16:44:52.080Z,21.30
2018-09-15T16:47:22.575Z,21.20
2018-09-15T16:49:53.468Z,21.10
2018-09-15T16:52:23.452Z,20.90
2018-09-15T16:54:53.447Z,20.70
2018-09-15T16:57:23.491Z,20.70
2018-09-15T16:59:53.919Z,20.70
2018-09-15T17:02:24.307Z,20.90
2018-09-15T17:04:54.688Z,20.70
2018-09-15T17:07:25.204Z,20.60
2018-09-15T17:09:55.472Z,20.60
2018-09-15T17:12:25.844Z,20.60
2018-09-15T17:14:56.190Z,20.50
2018-09-15T17:17:26.457Z,20.40
2018-09-15T17:19:57.509Z,20.30
2018-09-15T17:22:27.361Z,20.30
2018-09-15T17:24:59.301Z,20.20
2018-09-15T17:27:30.214Z,20.10
2018-09-15T17:30:01.385Z,20.00
2018-09-15T17:32:32.798Z,20.00
2018-09-15T17:35:03.926Z,19.90
2018-09-15T17:37:35.119Z,19.70
2018-09-15T17:40:06.312Z,19.60
2018-09-15T17:42:37.140Z,19.60
2018-09-15T17:45:08.148Z,19.60
2018-09-15T17:47:38.444Z,19.50
2018-09-15T17:50:09.517Z,19.40
2018-09-15T17:52:41.066Z,19.40
2018-09-15T17:55:12.324Z,19.20
2018-09-15T17:57:43.888Z,19.20
2018-09-15T18:00:15.122Z,19.10
2018-09-15T18:02:45.881Z,19.00
2018-09-15T18:05:16.932Z,19.00
2018-09-15T18:07:48.154Z,18.80
2018-09-15T18:10:19.543Z,18.80
2018-09-15T18:12:49.751Z,18.70
2018-09-15T18:15:20.393Z,18.60
2018-09-15T18:17:51.139Z,18.60
2018-09-15T18:20:22.470Z,18.50
2018-09-15T18:22:54.136Z,18.40
2018-09-15T18:25:25.103Z,18.40
2018-09-15T18:27:56.784Z,18.30
2018-09-15T18:30:27.990Z,18.30
2018-09-15T18:32:59.159Z,18.30
2018-09-15T18:35:29.897Z,18.10
2018-09-15T18:38:00.591Z,18.10
2018-09-15T18:40:31.912Z,18.10
2018-09-15T18:43:03.635Z,18.00
2018-09-15T18:45:34.508Z,18.00
2018-09-15T18:48:05.870Z,17.90
2018-09-15T18:50:36.934Z,17.80
2018-09-15T18:53:08.294Z,17.70
2018-09-15T18:55:38.789Z,17.60
2018-09-15T18:58:10.095Z,17.40
2018-09-15T19:00:40.910Z,17.30
2018-09-15T19:03:15.948Z,17.30
2018-09-15T19:05:47.933Z,17.20
2018-09-15T19:08:18.890Z,17.10
2018-09-15T19:10:49.507Z,17.10
2018-09-15T19:13:20.302Z,17.10
2018-09-15T19:15:50.811Z,17.10
2018-09-15T19:18:21.188Z,17.00
2018-09-15T19:20:51.866Z,17.00
2018-09-15T19:23:22.830Z,17.00
2018-09-15T19:25:53.216Z,16.80
2018-09-15T19:28:24.464Z,16.80
2018-09-15T19:30:56.069Z,16.60
2018-09-15T19:33:27.265Z,16.70
2018-09-15T19:35:58.714Z,16.60
2018-09-15T19:38:30.628Z,16.50
2018-09-15T19:41:02.318Z,16.40
2018-09-15T19:43:33.025Z,16.40
2018-09-15T19:46:03.640Z,16.40
2018-09-15T19:48:34.119Z,16.40
2018-09-15T19:51:05.331Z,16.50
2018-09-15T19:53:36.206Z,16.50
2018-09-15T19:56:08.139Z,16.50
2018-09-15T19:58:40.047Z,16.40
2018-09-15T20:01:10.601Z,16.40
2018-09-15T20:03:41.463Z,16.30
2018-09-15T20:06:11.935Z,16.40
2018-09-15T20:08:42.508Z,16.20
2018-09-15T20:11:12.897Z,16.20
2018-09-15T20:13:43.320Z,16.30
2018-09-15T20:16:12.148Z,16.20
2018-09-15T20:18:41.474Z,16.20
2018-09-15T20:21:10.040Z,16.20
2018-09-15T20:23:40.950Z,16.20
2018-09-15T20:26:11.542Z,16.10
2018-09-15T20:28:42.430Z,16.00
2018-09-15T20:31:13.759Z,16.00
2018-09-15T20:33:43.877Z,15.90
2018-09-15T20:36:14.591Z,15.80
2018-09-15T20:38:46.628Z,15.80
2018-09-15T20:41:17.958Z,15.70
2018-09-15T20:43:49.908Z,15.70
2018-09-15T20:46:21.463Z,15.60
2018-09-15T20:48:52.286Z,15.60
2018-09-15T20:51:23.001Z,15.60
2018-09-15T20:53:54.444Z,15.50
2018-09-15T20:56:26.361Z,15.40
2018-09-15T20:58:57.106Z,15.40
2018-09-15T21:01:28.040Z,15.30
2018-09-15T21:03:59.199Z,15.30
2018-09-15T21:06:30.866Z,15.30
2018-09-15T21:09:01.628Z,15.30
2018-09-15T21:11:32.146Z,15.30
2018-09-15T21:14:02.389Z,15.20
2018-09-15T21:16:32.835Z,15.20
2018-09-15T21:19:03.445Z,15.20
2018-09-15T21:21:35.227Z,15.10
2018-09-15T21:24:06.410Z,15.10
2018-09-15T21:26:38.076Z,15.00
2018-09-15T21:29:08.469Z,15.00
2018-09-15T21:31:38.985Z,14.80
2018-09-15T21:34:25.630Z,14.90
2018-09-15T21:36:56.334Z,14.90
2018-09-15T21:39:27.670Z,14.70
2018-09-15T21:42:06.586Z,14.70
2018-09-15T21:44:37.047Z,14.70
2018-09-15T21:47:10.106Z,14.70
2018-09-15T21:49:40.896Z,14.50
2018-09-15T21:52:12.834Z,14.40
2018-09-15T21:54:43.363Z,14.50
2018-09-15T21:57:13.938Z,14.50
2018-09-15T21:59:44.496Z,14.50
2018-09-15T22:02:16.088Z,14.50
2018-09-15T22:04:47.087Z,14.40
2018-09-15T22:07:18.046Z,14.40
2018-09-15T22:09:48.844Z,14.40
2018-09-15T22:12:19.371Z,14.30
2018-09-15T22:14:50.390Z,14.30
2018-09-15T22:17:20.469Z,14.20
2018-09-15T22:19:51.352Z,14.20
2018-09-15T22:22:22.462Z,14.20
2018-09-15T22:24:53.037Z,14.20
2018-09-15T22:27:24.408Z,14.10
2018-09-15T22:29:55.965Z,14.00
2018-09-15T22:32:27.427Z,14.00
2018-09-15T22:34:58.748Z,13.90
2018-09-15T22:37:29.714Z,13.90
2018-09-15T22:39:59.973Z,13.90
2018-09-15T22:42:30.364Z,13.80
2018-09-15T22:45:00.589Z,13.80
2018-09-15T22:47:30.822Z,13.80
2018-09-15T22:50:01.248Z,13.80
2018-09-15T22:52:31.606Z,13.70
2018-09-15T22:55:02.012Z,13.70
2018-09-15T22:57:32.630Z,13.70
2018-09-15T23:00:03.175Z,13.60
2018-09-15T23:02:33.775Z,13.60
2018-09-15T23:05:04.124Z,13.60
2018-09-15T23:07:34.709Z,13.60
2018-09-15T23:10:05.553Z,13.50
2018-09-15T23:12:35.660Z,13.50
2018-09-15T23:15:06.575Z,13.40
2018-09-15T23:17:37.378Z,13.40
2018-09-15T23:20:07.746Z,13.40
2018-09-15T23:22:38.070Z,13.30
2018-09-15T23:25:08.461Z,13.30
2018-09-15T23:27:38.970Z,13.30
2018-09-15T23:30:13.075Z,13.30
2018-09-15T23:32:43.746Z,13.30
2018-09-15T23:35:14.279Z,13.30
2018-09-15T23:37:45.311Z,13.30
2018-09-15T23:40:15.829Z,13.30
2018-09-15T23:42:46.030Z,13.30
2018-09-15T23:45:16.235Z,13.40
2018-09-15T23:47:47.172Z,13.40
2018-09-15T23:50:17.417Z,13.40
2018-09-15T23:52:47.642Z,13.40
2018-09-15T23:55:17.834Z,13.40
2018-09-15T23:57:48.953Z,13.40
